Terminal Aerodrome Forecast
Issued by NWS Wichita, KS

Home | Current Version | Previous Version | Graphics & Text | Print | Product List | Glossary On
Versions: 1 2 3 4 5 6 7 8 9 10 11 12 13 14 15 16
004
FTUS43 KICT 282323
TAFICT
TAF
KICT 282323Z 2900/2924 26010KT P6SM SCT150 BKN250
     FM290200 12005KT P6SM SCT250
     FM291000 11006KT P6SM SCT120 BKN250
     FM291300 VRB05KT P6SM BKN120
     FM291700 15008KT P6SM SCT040 BKN120=

USA.gov is the U.S. government's official web portal to all federal, state and local government web resources and services.